createdAt,value
2023-05-09T00:00:01.105Z,14.3
2023-05-09T00:05:02.094Z,14.3
2023-05-09T00:10:01.302Z,14.3
2023-05-09T00:15:00.961Z,14.2
2023-05-09T00:20:00.669Z,14.2
2023-05-09T00:25:01.610Z,14.3
2023-05-09T00:30:00.970Z,14.3
2023-05-09T00:35:01.181Z,14.5
2023-05-09T00:40:01.069Z,14.5
2023-05-09T00:45:01.501Z,14.5
2023-05-09T00:50:00.748Z,14.5
2023-05-09T00:55:00.978Z,14.5
2023-05-09T01:00:01.124Z,14.5
2023-05-09T01:05:00.786Z,14.4
2023-05-09T01:10:01.095Z,14.4
2023-05-09T01:15:00.561Z,14.5
2023-05-09T01:20:00.721Z,14.5
2023-05-09T01:25:01.756Z,14.5
2023-05-09T01:30:01.272Z,14.6
2023-05-09T01:35:00.764Z,14.5
2023-05-09T01:40:01.132Z,14.5
2023-05-09T01:45:00.811Z,14.5
2023-05-09T01:50:01.024Z,14.5
2023-05-09T01:55:01.057Z,14.5
2023-05-09T02:00:00.530Z,14.5
2023-05-09T02:05:01.065Z,14.5
2023-05-09T02:10:00.785Z,14.5
2023-05-09T02:15:01.389Z,14.5
2023-05-09T02:20:01.030Z,14.5
2023-05-09T02:25:00.891Z,14.5
2023-05-09T02:30:01.133Z,14.5
2023-05-09T02:35:00.962Z,14.5
2023-05-09T02:40:02.625Z,14.5
2023-05-09T02:45:00.572Z,14.5
2023-05-09T02:50:00.798Z,14.4
2023-05-09T02:55:01.823Z,14.4
2023-05-09T03:00:00.717Z,14.4
2023-05-09T03:05:01.074Z,14.5
2023-05-09T03:10:00.938Z,14.5
2023-05-09T03:15:00.900Z,14.5
2023-05-09T03:20:03.340Z,14.4
2023-05-09T03:25:00.608Z,14.4
2023-05-09T03:30:00.817Z,14.4
2023-05-09T03:35:00.730Z,14.3
2023-05-09T03:40:00.832Z,14.3
2023-05-09T03:45:00.809Z,14.3
2023-05-09T03:50:01.882Z,14.2
2023-05-09T03:55:00.909Z,14.2
2023-05-09T04:00:01.823Z,14.2
2023-05-09T04:05:00.669Z,14.2
2023-05-09T04:10:00.726Z,14.1
2023-05-09T04:15:01.000Z,14.1
2023-05-09T04:20:01.536Z,14.1
2023-05-09T04:25:00.735Z,14.1
2023-05-09T04:30:00.845Z,14.1
2023-05-09T04:35:00.690Z,14.1
2023-05-09T04:40:00.957Z,14.1
2023-05-09T04:45:00.858Z,14.2
2023-05-09T04:50:00.709Z,14.1
2023-05-09T04:55:00.800Z,14.2
2023-05-09T05:00:00.841Z,14.2
2023-05-09T05:05:13.297Z,14.1
2023-05-09T05:10:00.889Z,14.1
2023-05-09T05:15:00.901Z,14.2
2023-05-09T05:20:00.955Z,14.2
2023-05-09T05:25:00.920Z,14.2
2023-05-09T05:30:00.604Z,14.3
2023-05-09T05:35:01.046Z,14.3
2023-05-09T05:40:00.778Z,14.4
2023-05-09T05:45:00.730Z,14.4
2023-05-09T05:50:01.316Z,14.4
2023-05-09T05:55:00.512Z,14.5
2023-05-09T06:00:00.827Z,14.5
2023-05-09T06:05:01.305Z,14.7
2023-05-09T06:10:01.031Z,14.6
2023-05-09T06:15:00.745Z,14.7
2023-05-09T06:20:00.835Z,14.8
2023-05-09T06:25:01.378Z,14.8
2023-05-09T06:30:02.749Z,14.8
2023-05-09T06:35:00.902Z,14.9
2023-05-09T06:40:01.114Z,14.9
2023-05-09T06:45:00.739Z,15.0
2023-05-09T06:50:00.829Z,15.0
2023-05-09T06:55:01.013Z,15.1
2023-05-09T07:00:01.627Z,15.3
2023-05-09T07:05:03.226Z,15.4
2023-05-09T07:10:10.711Z,15.5
2023-05-09T07:15:00.897Z,15.6
2023-05-09T07:20:00.910Z,15.5
2023-05-09T07:25:01.093Z,15.6
2023-05-09T07:30:00.682Z,15.7
2023-05-09T07:35:01.089Z,15.8
2023-05-09T07:40:01.319Z,15.9
2023-05-09T07:45:01.020Z,15.8
2023-05-09T07:50:00.960Z,15.8
2023-05-09T07:55:00.621Z,16.0
2023-05-09T08:00:00.883Z,16.0
2023-05-09T08:05:00.869Z,16.2
2023-05-09T08:10:00.826Z,16.1
2023-05-09T08:15:00.740Z,16.3
2023-05-09T08:20:00.835Z,16.4
2023-05-09T08:25:01.819Z,16.5
2023-05-09T08:30:01.038Z,16.6
2023-05-09T08:35:00.816Z,16.7
2023-05-09T08:40:00.538Z,16.8
2023-05-09T08:45:01.030Z,17.0
2023-05-09T08:50:01.174Z,17.0
2023-05-09T08:55:00.632Z,17.1
2023-05-09T09:00:01.758Z,17.3
2023-05-09T09:05:00.837Z,17.3
2023-05-09T09:10:00.772Z,17.2
2023-05-09T09:15:01.208Z,17.3
2023-05-09T09:20:00.513Z,17.1
2023-05-09T09:25:01.037Z,17.0
2023-05-09T09:30:00.819Z,17.0
2023-05-09T09:35:01.040Z,16.9
2023-05-09T09:40:01.101Z,16.8
2023-05-09T09:45:01.450Z,16.9
2023-05-09T09:50:00.950Z,17.0
2023-05-09T09:55:02.449Z,16.9
2023-05-09T10:00:00.756Z,16.8
2023-05-09T10:05:01.317Z,16.6
2023-05-09T10:10:00.828Z,16.2
2023-05-09T10:15:00.977Z,16.1
2023-05-09T10:20:02.228Z,16.1
2023-05-09T10:25:00.531Z,16.3
2023-05-09T10:30:01.128Z,16.6
2023-05-09T10:35:01.406Z,16.9
2023-05-09T10:40:00.795Z,17.0
2023-05-09T10:45:00.890Z,17.0
2023-05-09T10:50:00.540Z,17.1
2023-05-09T10:55:01.206Z,16.9
2023-05-09T11:00:00.718Z,17.0
2023-05-09T11:05:01.000Z,17.2
2023-05-09T11:10:01.060Z,16.9
2023-05-09T11:15:00.605Z,17.0
2023-05-09T11:20:01.422Z,17.0
2023-05-09T11:25:01.285Z,16.6
2023-05-09T11:30:00.910Z,16.4
2023-05-09T11:35:01.328Z,16.4
2023-05-09T11:40:02.182Z,16.3
2023-05-09T11:45:01.658Z,16.2
2023-05-09T11:50:00.741Z,16.3
2023-05-09T11:55:01.091Z,15.8
2023-05-09T12:00:00.675Z,15.9
2023-05-09T12:05:00.834Z,15.5
2023-05-09T12:10:01.187Z,15.2
2023-05-09T12:15:00.979Z,15.1
2023-05-09T12:20:00.848Z,15.1
2023-05-09T12:25:00.954Z,15.0
2023-05-09T12:30:00.955Z,15.1
2023-05-09T12:35:00.733Z,15.0
2023-05-09T12:40:03.641Z,14.9
2023-05-09T12:45:00.505Z,15.0
2023-05-09T12:50:00.790Z,15.1
2023-05-09T12:55:01.597Z,14.8
2023-05-09T13:00:00.769Z,14.8
2023-05-09T13:05:00.629Z,14.9
2023-05-09T13:10:00.875Z,14.9
2023-05-09T13:15:03.008Z,15.1
2023-05-09T13:20:01.402Z,15.0
2023-05-09T13:25:01.212Z,15.0
2023-05-09T13:30:03.418Z,15.1
2023-05-09T13:35:01.297Z,14.9
2023-05-09T13:40:00.922Z,15.0
2023-05-09T13:45:01.083Z,15.1
2023-05-09T13:50:01.180Z,15.1
2023-05-09T13:55:01.293Z,15.0
2023-05-09T14:00:00.880Z,15.1
2023-05-09T14:05:01.007Z,15.2
2023-05-09T14:10:11.481Z,15.1
2023-05-09T14:15:01.070Z,14.8
2023-05-09T14:20:01.244Z,14.9
2023-05-09T14:25:00.509Z,14.8
2023-05-09T14:30:01.094Z,14.9
2023-05-09T14:35:00.666Z,14.9
2023-05-09T14:40:01.364Z,14.8
2023-05-09T14:45:00.872Z,14.7
2023-05-09T14:50:01.620Z,14.7
2023-05-09T14:55:00.789Z,14.7
2023-05-09T15:00:09.204Z,14.4
2023-05-09T15:05:01.036Z,14.4
2023-05-09T15:10:01.306Z,14.4
2023-05-09T15:15:00.519Z,14.5
2023-05-09T15:20:00.579Z,14.4
2023-05-09T15:25:00.923Z,14.5
2023-05-09T15:30:02.024Z,14.6
2023-05-09T15:35:00.687Z,14.6
2023-05-09T15:40:00.961Z,14.6
2023-05-09T15:45:00.864Z,14.5
2023-05-09T15:50:02.811Z,14.4
2023-05-09T15:55:00.860Z,14.5
2023-05-09T16:00:02.574Z,14.7
2023-05-09T16:05:00.956Z,14.7
2023-05-09T16:10:00.570Z,14.6
2023-05-09T16:15:02.393Z,14.4
2023-05-09T16:20:00.744Z,14.4
2023-05-09T16:25:00.951Z,14.3
2023-05-09T16:30:00.775Z,14.4
2023-05-09T16:35:00.800Z,14.4
2023-05-09T16:40:00.654Z,14.4
2023-05-09T16:45:00.639Z,14.4
2023-05-09T16:50:00.632Z,14.4
2023-05-09T16:55:00.536Z,14.4
2023-05-09T17:00:01.083Z,14.4
2023-05-09T17:05:00.513Z,14.4
2023-05-09T17:10:00.765Z,14.4
2023-05-09T17:15:00.929Z,14.4
2023-05-09T17:20:00.919Z,14.4
2023-05-09T17:25:00.781Z,14.3
2023-05-09T17:30:01.699Z,14.3
2023-05-09T17:35:00.743Z,14.4
2023-05-09T17:40:01.385Z,14.3
2023-05-09T17:45:00.945Z,14.2
2023-05-09T17:50:01.090Z,14.3
2023-05-09T17:55:00.480Z,14.2
2023-05-09T18:00:01.387Z,14.2
2023-05-09T18:05:00.688Z,14.3
2023-05-09T18:10:00.957Z,14.2
2023-05-09T18:15:01.796Z,14.2
2023-05-09T18:20:00.913Z,14.1
2023-05-09T18:25:00.817Z,14.1
2023-05-09T18:30:02.151Z,14.1
2023-05-09T18:35:00.932Z,14.0
2023-05-09T18:40:01.109Z,14.0
2023-05-09T18:45:00.850Z,14.0
2023-05-09T18:50:02.691Z,14.0
2023-05-09T18:55:01.728Z,14.0
2023-05-09T19:00:00.984Z,14.0
2023-05-09T19:05:00.669Z,14.0
2023-05-09T19:10:00.846Z,13.9
2023-05-09T19:15:02.047Z,13.9
2023-05-09T19:20:00.918Z,13.9
2023-05-09T19:25:00.492Z,13.9
2023-05-09T19:30:00.836Z,13.8
2023-05-09T19:35:01.613Z,13.7
2023-05-09T19:40:01.513Z,13.7
2023-05-09T19:45:00.758Z,13.7
2023-05-09T19:50:00.764Z,13.7
2023-05-09T19:55:00.804Z,13.6
2023-05-09T20:00:00.891Z,13.6
2023-05-09T20:05:01.024Z,13.6
2023-05-09T20:10:01.013Z,13.6
2023-05-09T20:15:00.499Z,13.6
2023-05-09T20:20:01.046Z,13.6
2023-05-09T20:25:01.035Z,13.6
2023-05-09T20:30:00.807Z,13.5
2023-05-09T20:35:01.221Z,13.5
2023-05-09T20:40:01.716Z,13.5
2023-05-09T20:45:02.348Z,13.5
2023-05-09T20:50:01.453Z,13.5
2023-05-09T20:55:00.789Z,13.5
2023-05-09T21:00:00.888Z,13.5
2023-05-09T21:05:00.818Z,13.5
2023-05-09T21:10:01.835Z,13.5
2023-05-09T21:15:00.776Z,13.4
2023-05-09T21:20:02.608Z,13.4
2023-05-09T21:25:00.529Z,13.5
2023-05-09T21:30:02.124Z,13.4
2023-05-09T21:35:00.917Z,13.4
2023-05-09T21:40:00.746Z,13.4
2023-05-09T21:45:00.656Z,13.1
2023-05-09T21:50:00.892Z,12.9
2023-05-09T21:55:01.312Z,12.8
2023-05-09T22:00:00.898Z,12.8
2023-05-09T22:05:01.153Z,12.8
2023-05-09T22:10:00.787Z,12.7
2023-05-09T22:15:00.761Z,12.6
2023-05-09T22:20:01.056Z,12.5
2023-05-09T22:25:00.512Z,12.5
2023-05-09T22:30:01.869Z,12.5
2023-05-09T22:35:00.914Z,12.5
2023-05-09T22:40:01.233Z,12.5
2023-05-09T22:45:02.258Z,12.5
2023-05-09T22:50:01.154Z,12.4
2023-05-09T22:55:00.801Z,12.4
2023-05-09T23:00:00.921Z,12.4
2023-05-09T23:05:00.903Z,12.4
2023-05-09T23:10:00.711Z,12.4
2023-05-09T23:15:00.771Z,12.4
2023-05-09T23:20:00.864Z,12.4
2023-05-09T23:25:01.312Z,12.4
2023-05-09T23:30:00.621Z,12.4
2023-05-09T23:35:00.817Z,12.4
2023-05-09T23:40:00.852Z,12.3
2023-05-09T23:45:00.667Z,12.3
2023-05-09T23:50:00.976Z,12.3
2023-05-09T23:55:00.689Z,12.3
